메인 페이지
METAR-TAF:

METAR-TAF

공항 :

베이루트, 레바논

위도: 33-49N, 경도: 035-29E, 고도: 29m

현재 날씨관측

예보는 59분 전, 08:00시(UTC)에 발표되었습니다.
서남서7kt
온도 29°C
습도 66%
기압 1009 hPa
시정: 6000m
고도 2800ft 상공 구름 많음

METAR: OLBA 210800Z 24007KT 6000 BKN028 29/22 Q1009 NOSIG

시각: 11:59 (08:59 UTC)

예보

예보는 4 시간 59분 전, 04:00시(UTC)에 발표되었습니다.
예보 대상 시간: 21일 06시부터 22일 12시까지 (UTC)
남서10kt
시정: 7000m
고도 2500ft 상공 구름 보통
일시적
21일 06시부터 21일 18시까지 (UTC)
시정: 4000m
박무
전환 중
22일 00시부터 22일 03시까지 (UTC)
남동5kt
전환 중
22일 06시부터 22일 09시까지 (UTC)
남서12kt
시정: 6000m
고도 2500ft 상공 구름 많음

TAF: OLBA 210400Z 2106/2212 22010KT 7000 SCT025 TEMPO 2106/2118 4000 BR BECMG 2200/2203 14005KT BECMG 2206/2209 23012KT 6000 BKN025

4,000개 이상의 공항 관측 자료 및 예보 (METAR 및 TAF 보고).

지도상에서 검색 가능한 기상관측소가 노란 점과 빨간 점으로 표시되어 있습니다.

기상관측소 명을 보려면 표시 위로 마우스를 이동하세요.

날씨 관측과 예보를 보려면 클릭하세요.

지도 변경 : 확대하려면 엑스 표시가 있는 녹색 버튼, 축소하려면 빼기 표시가 있는 녹색 버튼, 다음 페이지의 지도를 보려면 녹색 화살표를 클릭하세요.


METAR-TAF: